Hollywood Heights, Illinois
Current Conditions -  °F | °C
As of 3:25 AM on Sunday 26 Oct 2014 (Local Time) from KCPS Reporting Station
Moderate Fog Moderate Fog  
Wind Chill: 49°   Ceiling: Unl
Heat Index: 49°   Visibility: 0.5mi
Dew Point: 48°   Wind: 0mph
Humidity: 97%   Direction: NA
Pressure: 30.02"   Gusts: NA
Location:  38.635°N, 90.0037°W
Report Text: KCPS 260825Z AUTO 00000KT 1/2SM FG CLR 09/09 A3002 RMK AO2 VIS 1/4V2 T00940089 $
Loading
Personal Weather Stations






























Interactive Weather Map
Tropical Storm Tracking
New forecast layout! Learn more

10-Day Weather Forecast

Advertisements
Track Severe Weather on mobile